createdAt,value
2023-07-17T00:00:47.497Z,6.90
2023-07-17T00:01:47.597Z,5.20
2023-07-17T00:02:47.473Z,5.60
2023-07-17T00:03:47.507Z,5.90
2023-07-17T00:04:47.485Z,5.90
2023-07-17T00:05:47.459Z,5.80
2023-07-17T00:06:47.462Z,6.00
2023-07-17T00:07:47.461Z,5.80
2023-07-17T00:08:47.474Z,5.80
2023-07-17T00:09:47.468Z,5.90
2023-07-17T00:10:47.476Z,5.80
2023-07-17T00:11:47.467Z,6.30
2023-07-17T00:12:47.470Z,6.20
2023-07-17T00:13:47.466Z,5.90
2023-07-17T00:14:47.472Z,5.70
2023-07-17T00:15:47.470Z,6.00
2023-07-17T00:16:47.566Z,5.80
2023-07-17T00:17:47.505Z,5.80
2023-07-17T00:18:47.474Z,6.20
2023-07-17T00:19:47.470Z,5.50
2023-07-17T00:20:47.500Z,6.20
2023-07-17T00:21:47.472Z,5.90
2023-07-17T00:22:47.532Z,6.20
2023-07-17T00:23:47.473Z,6.10
2023-07-17T00:24:47.478Z,6.10
2023-07-17T00:25:47.478Z,6.00
2023-07-17T00:26:47.513Z,6.00
2023-07-17T00:27:47.485Z,6.00
2023-07-17T00:28:47.481Z,6.10
2023-07-17T00:29:47.484Z,6.20
2023-07-17T00:30:47.530Z,5.40
2023-07-17T00:31:47.480Z,5.70
2023-07-17T00:32:47.536Z,5.40
2023-07-17T00:33:47.482Z,6.00
2023-07-17T00:34:47.483Z,5.80
2023-07-17T00:35:47.478Z,5.70
2023-07-17T00:36:47.505Z,5.20
2023-07-17T00:37:47.480Z,5.00
2023-07-17T00:38:47.492Z,4.60
2023-07-17T00:39:47.507Z,4.50
2023-07-17T00:40:47.494Z,4.60
2023-07-17T00:41:47.507Z,5.10
2023-07-17T00:42:47.499Z,4.50
2023-07-17T00:43:47.493Z,4.80
2023-07-17T00:44:47.494Z,4.90
2023-07-17T00:45:47.489Z,5.00
2023-07-17T00:46:47.513Z,4.80
2023-07-17T00:47:47.520Z,5.10
2023-07-17T00:48:47.490Z,5.70
2023-07-17T00:49:47.492Z,6.00
2023-07-17T00:50:47.494Z,5.60
2023-07-17T00:51:47.509Z,4.70
2023-07-17T00:52:47.512Z,4.70
2023-07-17T00:53:47.493Z,4.80
2023-07-17T00:54:47.510Z,4.60
2023-07-17T00:55:47.504Z,4.70
2023-07-17T00:56:47.493Z,4.40
2023-07-17T00:57:47.496Z,4.90
2023-07-17T00:58:47.498Z,4.70
2023-07-17T00:59:47.497Z,4.70
2023-07-17T01:00:47.518Z,4.80
2023-07-17T01:01:47.508Z,4.80
2023-07-17T01:02:47.592Z,4.80
2023-07-17T01:03:47.500Z,4.40
2023-07-17T01:04:47.505Z,4.70
2023-07-17T01:05:47.509Z,4.90
2023-07-17T01:06:47.503Z,4.90
2023-07-17T01:07:47.504Z,4.40
2023-07-17T01:08:47.525Z,4.40
2023-07-17T01:09:47.502Z,4.70
2023-07-17T01:10:47.510Z,4.60
2023-07-17T01:11:47.515Z,4.60
2023-07-17T01:12:47.520Z,4.40
2023-07-17T01:13:47.508Z,4.70
2023-07-17T01:14:47.507Z,4.40
2023-07-17T01:15:47.506Z,4.20
2023-07-17T01:16:47.646Z,4.80
2023-07-17T01:17:47.554Z,4.30
2023-07-17T01:18:47.511Z,4.40
2023-07-17T01:19:47.531Z,4.70
2023-07-17T01:20:47.518Z,4.20
2023-07-17T01:21:47.512Z,4.80
2023-07-17T01:22:47.538Z,4.70
2023-07-17T01:23:47.525Z,4.50
2023-07-17T01:24:47.536Z,4.70
2023-07-17T01:25:47.633Z,4.50
2023-07-17T01:26:47.528Z,4.40
2023-07-17T01:27:47.517Z,4.50
2023-07-17T01:28:47.554Z,4.30
2023-07-17T01:29:47.520Z,4.60
2023-07-17T01:30:47.535Z,4.30
2023-07-17T01:31:47.524Z,4.10
2023-07-17T01:32:47.586Z,4.30
2023-07-17T01:33:47.518Z,4.60
2023-07-17T01:34:47.530Z,4.30
2023-07-17T01:35:47.535Z,4.30
2023-07-17T01:36:47.526Z,4.20
2023-07-17T01:37:47.528Z,4.00
2023-07-17T01:38:47.528Z,3.90
2023-07-17T01:39:47.541Z,3.90
2023-07-17T01:40:47.552Z,4.20
2023-07-17T01:41:47.529Z,4.20
2023-07-17T01:42:47.530Z,3.70
2023-07-17T01:43:47.530Z,4.20
2023-07-17T01:44:47.533Z,4.00
2023-07-17T01:45:47.531Z,3.90
2023-07-17T01:46:47.608Z,3.80
2023-07-17T01:47:47.610Z,3.80
2023-07-17T01:48:47.548Z,3.80
2023-07-17T01:49:47.537Z,3.60
2023-07-17T01:50:47.557Z,4.00
2023-07-17T01:51:47.548Z,3.90
2023-07-17T01:52:47.544Z,3.90
2023-07-17T01:53:47.543Z,3.70
2023-07-17T01:54:47.542Z,3.70
2023-07-17T01:55:47.543Z,3.90
2023-07-17T01:56:47.563Z,3.80
2023-07-17T01:57:47.545Z,3.70
2023-07-17T01:58:47.545Z,3.60
2023-07-17T01:59:47.547Z,3.20
2023-07-17T02:00:47.547Z,3.50
2023-07-17T02:01:47.579Z,3.30
2023-07-17T02:02:47.566Z,3.30
2023-07-17T02:03:47.549Z,3.40
2023-07-17T02:04:47.587Z,3.10
2023-07-17T02:05:47.558Z,3.00
2023-07-17T02:06:47.551Z,3.30
2023-07-17T02:07:47.555Z,3.30
2023-07-17T02:08:47.568Z,3.10
2023-07-17T02:09:47.563Z,3.30
2023-07-17T02:10:47.553Z,3.10
2023-07-17T02:11:47.553Z,3.30
2023-07-17T02:12:47.579Z,3.10
2023-07-17T02:13:47.562Z,3.30
2023-07-17T02:14:47.559Z,3.50
2023-07-17T02:15:47.558Z,3.10
2023-07-17T02:16:47.578Z,3.10
2023-07-17T02:17:47.583Z,3.10
2023-07-17T02:18:47.574Z,3.20
2023-07-17T02:19:47.562Z,2.90
2023-07-17T02:20:47.567Z,3.20
2023-07-17T02:21:47.624Z,3.00
2023-07-17T02:22:47.644Z,3.20
2023-07-17T02:23:47.562Z,3.10
2023-07-17T02:24:47.565Z,3.20
2023-07-17T02:25:47.578Z,2.70
2023-07-17T02:26:47.564Z,3.10
2023-07-17T02:27:47.563Z,2.90
2023-07-17T02:28:47.593Z,2.70
2023-07-17T02:29:47.566Z,2.80
2023-07-17T02:30:47.569Z,2.70
2023-07-17T02:31:47.622Z,2.80
2023-07-17T02:32:47.611Z,3.00
2023-07-17T02:33:47.574Z,2.90
2023-07-17T02:34:47.581Z,3.00
2023-07-17T02:35:47.571Z,3.10
2023-07-17T02:36:47.573Z,2.90
2023-07-17T02:37:47.689Z,2.90
2023-07-17T02:38:47.588Z,2.80
2023-07-17T02:39:47.581Z,3.10
2023-07-17T02:40:47.575Z,2.80
2023-07-17T02:41:47.574Z,3.00
2023-07-17T02:42:47.577Z,3.10
2023-07-17T02:43:47.581Z,2.90
2023-07-17T02:44:47.643Z,2.80
2023-07-17T02:45:47.595Z,3.10
2023-07-17T02:46:47.580Z,3.10
2023-07-17T02:47:47.659Z,3.00
2023-07-17T02:48:47.578Z,3.50
2023-07-17T02:49:47.580Z,3.00
2023-07-17T02:50:47.587Z,2.90
2023-07-17T02:51:47.585Z,3.10
2023-07-17T02:52:47.589Z,2.80
2023-07-17T02:53:47.582Z,2.90
2023-07-17T02:54:47.654Z,2.80
2023-07-17T02:55:47.620Z,2.80
2023-07-17T02:56:47.586Z,3.10
2023-07-17T02:57:47.587Z,3.00
2023-07-17T02:58:47.585Z,2.90
2023-07-17T02:59:47.588Z,2.80
2023-07-17T03:00:47.620Z,2.90
2023-07-17T03:01:47.615Z,3.00
2023-07-17T03:02:47.623Z,2.90
2023-07-17T03:03:47.596Z,3.00
2023-07-17T03:04:47.601Z,2.80
2023-07-17T03:05:47.711Z,3.10
2023-07-17T03:06:47.594Z,3.30
2023-07-17T03:07:47.593Z,3.10
2023-07-17T03:08:47.600Z,3.20
2023-07-17T03:09:49.478Z,3.10
2023-07-17T03:10:47.605Z,2.70
2023-07-17T03:11:47.617Z,3.10
2023-07-17T03:12:47.600Z,3.00
2023-07-17T03:13:47.598Z,3.10
2023-07-17T03:14:47.606Z,2.80
2023-07-17T03:15:47.630Z,3.10
2023-07-17T03:16:47.627Z,2.90
2023-07-17T03:17:47.661Z,2.90
2023-07-17T03:18:47.605Z,3.20
2023-07-17T03:19:47.602Z,3.10
2023-07-17T03:20:47.605Z,2.80
2023-07-17T03:21:47.697Z,3.00
2023-07-17T03:22:47.652Z,3.10
2023-07-17T03:23:47.607Z,3.00
2023-07-17T03:24:47.608Z,3.00
2023-07-17T03:25:47.612Z,3.00
2023-07-17T03:26:47.611Z,2.80
2023-07-17T03:27:47.611Z,2.90
2023-07-17T03:28:47.616Z,2.90
2023-07-17T03:29:47.615Z,2.90
2023-07-17T03:30:47.627Z,2.90
2023-07-17T03:31:47.647Z,2.60
2023-07-17T03:32:47.720Z,2.80
2023-07-17T03:33:47.660Z,2.90
2023-07-17T03:34:47.621Z,2.70
2023-07-17T03:35:47.629Z,2.70
2023-07-17T03:36:47.635Z,2.60
2023-07-17T03:37:47.621Z,3.00
2023-07-17T03:38:47.621Z,2.80
2023-07-17T03:39:47.622Z,2.70
2023-07-17T03:40:47.630Z,2.70
2023-07-17T03:41:47.631Z,2.80
2023-07-17T03:42:47.635Z,2.70
2023-07-17T03:43:47.627Z,2.80
2023-07-17T03:44:47.626Z,2.70
2023-07-17T03:45:47.632Z,3.00
2023-07-17T03:46:47.651Z,2.50
2023-07-17T03:47:47.651Z,3.00
2023-07-17T03:48:47.649Z,2.60
2023-07-17T03:49:47.634Z,2.60
2023-07-17T03:50:47.631Z,3.00
2023-07-17T03:51:47.631Z,2.70
2023-07-17T03:52:47.637Z,2.80
2023-07-17T03:53:47.638Z,2.70
2023-07-17T03:54:47.648Z,2.60
2023-07-17T03:55:47.674Z,2.80
2023-07-17T03:56:47.649Z,2.50
2023-07-17T03:57:47.647Z,2.90
2023-07-17T03:58:47.664Z,2.70
2023-07-17T03:59:47.641Z,2.90
2023-07-17T04:00:47.698Z,2.90
2023-07-17T04:01:47.730Z,3.00
2023-07-17T04:02:47.694Z,2.80
2023-07-17T04:03:49.518Z,2.90
2023-07-17T04:04:47.664Z,2.80
2023-07-17T04:05:47.646Z,2.80
2023-07-17T04:06:47.653Z,2.90
2023-07-17T04:07:47.663Z,2.90
2023-07-17T04:08:47.646Z,2.70
2023-07-17T04:09:47.648Z,2.60
2023-07-17T04:10:47.653Z,2.90
2023-07-17T04:11:47.944Z,2.80
2023-07-17T04:12:47.654Z,2.90
2023-07-17T04:13:47.655Z,3.00
2023-07-17T04:14:47.657Z,2.60
2023-07-17T04:15:47.672Z,2.60
2023-07-17T04:16:47.736Z,3.00
2023-07-17T04:17:47.838Z,3.20
2023-07-17T04:18:47.661Z,3.00
2023-07-17T04:19:47.664Z,3.20
2023-07-17T04:20:47.678Z,2.90
2023-07-17T04:21:47.662Z,3.00
2023-07-17T04:22:47.678Z,2.90
2023-07-17T04:23:47.716Z,3.00
2023-07-17T04:24:47.676Z,3.30
2023-07-17T04:25:47.674Z,2.90
2023-07-17T04:26:47.663Z,3.10
2023-07-17T04:27:47.668Z,2.90
2023-07-17T04:28:47.663Z,3.20
2023-07-17T04:29:47.665Z,3.10
2023-07-17T04:30:47.687Z,3.10
2023-07-17T04:31:47.666Z,3.10
2023-07-17T04:32:47.718Z,2.90
2023-07-17T04:33:47.669Z,3.00
2023-07-17T04:34:47.666Z,3.20
2023-07-17T04:35:47.694Z,3.00
2023-07-17T04:36:47.714Z,3.00
2023-07-17T04:37:47.674Z,2.90
2023-07-17T04:38:47.675Z,3.00
2023-07-17T04:39:47.674Z,3.10
2023-07-17T04:40:47.693Z,3.30
2023-07-17T04:41:47.673Z,3.30
2023-07-17T04:42:47.674Z,2.80
2023-07-17T04:43:47.676Z,3.10
2023-07-17T04:44:47.678Z,3.20
2023-07-17T04:45:47.677Z,3.10
2023-07-17T04:46:47.705Z,3.10
2023-07-17T04:47:47.726Z,2.90
2023-07-17T04:48:47.693Z,3.00
2023-07-17T04:49:47.686Z,3.00
2023-07-17T04:50:47.692Z,3.00
2023-07-17T04:51:47.727Z,3.20
2023-07-17T04:52:47.701Z,3.00
2023-07-17T04:53:47.684Z,2.90
2023-07-17T04:54:47.691Z,3.30
2023-07-17T04:55:47.683Z,3.10
2023-07-17T04:56:47.680Z,3.30
2023-07-17T04:57:47.693Z,3.10
2023-07-17T04:58:47.684Z,3.30
2023-07-17T04:59:48.673Z,3.10
2023-07-17T05:00:47.776Z,3.20
2023-07-17T05:01:47.695Z,3.20
2023-07-17T05:02:47.715Z,3.50
2023-07-17T05:03:47.716Z,3.40
2023-07-17T05:04:47.700Z,3.20
2023-07-17T05:05:47.702Z,3.40
2023-07-17T05:06:47.719Z,3.10
2023-07-17T05:07:47.692Z,3.30
2023-07-17T05:08:47.721Z,3.60
2023-07-17T05:09:47.696Z,3.30
2023-07-17T05:10:47.694Z,3.40
2023-07-17T05:11:47.719Z,3.40
2023-07-17T05:12:47.696Z,3.30
2023-07-17T05:13:47.700Z,3.70
2023-07-17T05:14:47.694Z,3.40
2023-07-17T05:15:47.702Z,3.50
2023-07-17T05:16:47.766Z,3.50
2023-07-17T05:17:47.784Z,3.40
2023-07-17T05:18:47.698Z,3.70
2023-07-17T05:19:47.700Z,3.40
2023-07-17T05:20:47.714Z,3.50
2023-07-17T05:21:47.703Z,3.20
2023-07-17T05:22:47.749Z,3.20
2023-07-17T05:23:47.710Z,3.20
2023-07-17T05:24:47.736Z,3.40
2023-07-17T05:25:47.707Z,3.60
2023-07-17T05:26:47.718Z,3.20
2023-07-17T05:27:47.719Z,3.50
2023-07-17T05:28:47.720Z,3.40
2023-07-17T05:29:47.707Z,3.60
2023-07-17T05:30:47.725Z,3.30
2023-07-17T05:31:47.706Z,3.30
2023-07-17T05:32:47.770Z,3.50
2023-07-17T05:33:47.706Z,3.60
2023-07-17T05:34:47.711Z,3.30
2023-07-17T05:35:47.708Z,3.50
2023-07-17T05:36:47.711Z,3.40
2023-07-17T05:37:47.718Z,3.50
2023-07-17T05:38:47.708Z,3.20
2023-07-17T05:39:47.715Z,3.60
2023-07-17T05:40:47.741Z,3.50
2023-07-17T05:41:47.715Z,3.20
2023-07-17T05:42:47.760Z,3.60
2023-07-17T05:43:47.721Z,3.60
2023-07-17T05:44:47.718Z,3.70
2023-07-17T05:45:47.712Z,3.90
2023-07-17T05:46:47.754Z,3.60
2023-07-17T05:47:47.761Z,3.70
2023-07-17T05:48:47.725Z,3.70
2023-07-17T05:49:47.722Z,4.00
2023-07-17T05:50:47.726Z,4.30
2023-07-17T05:51:47.772Z,4.20
2023-07-17T05:52:47.723Z,4.10
2023-07-17T05:53:47.718Z,4.30
2023-07-17T05:54:47.723Z,4.40
2023-07-17T05:55:47.718Z,4.20
2023-07-17T05:56:47.738Z,4.00
2023-07-17T05:57:47.724Z,4.20
2023-07-17T05:58:47.721Z,4.30
2023-07-17T05:59:47.725Z,4.10
2023-07-17T06:00:47.721Z,4.20
2023-07-17T06:01:47.721Z,4.30
2023-07-17T06:02:47.763Z,4.10
2023-07-17T06:03:47.779Z,4.40
2023-07-17T06:04:47.764Z,4.00
2023-07-17T06:05:47.725Z,4.00
2023-07-17T06:06:47.722Z,4.10
2023-07-17T06:07:47.726Z,4.40
2023-07-17T06:08:47.724Z,4.40
2023-07-17T06:09:47.725Z,4.10
2023-07-17T06:10:47.733Z,4.60
2023-07-17T06:11:47.729Z,4.40
2023-07-17T06:12:47.750Z,4.30
2023-07-17T06:13:47.733Z,4.40
2023-07-17T06:14:47.752Z,4.20
2023-07-17T06:15:47.734Z,4.20
2023-07-17T06:16:47.781Z,4.30
2023-07-17T06:17:47.766Z,4.40
2023-07-17T06:18:47.728Z,4.40
2023-07-17T06:19:47.736Z,4.30
2023-07-17T06:20:47.736Z,4.50
2023-07-17T06:21:47.733Z,4.10
2023-07-17T06:22:47.845Z,4.50
2023-07-17T06:23:47.746Z,4.60
2023-07-17T06:24:47.732Z,4.50
2023-07-17T06:25:47.736Z,4.50
2023-07-17T06:26:47.735Z,4.60
2023-07-17T06:27:47.735Z,4.50
2023-07-17T06:28:47.784Z,5.00
2023-07-17T06:29:47.749Z,4.80
2023-07-17T06:30:47.737Z,4.80
2023-07-17T06:31:47.839Z,4.80
2023-07-17T06:32:47.757Z,5.10
2023-07-17T06:33:47.742Z,5.10
2023-07-17T06:34:47.756Z,5.10
2023-07-17T06:35:47.739Z,5.10
2023-07-17T06:36:47.749Z,5.20
2023-07-17T06:37:47.739Z,5.00
2023-07-17T06:38:47.737Z,5.10
2023-07-17T06:39:47.744Z,5.30
2023-07-17T06:40:47.744Z,5.50
2023-07-17T06:41:47.742Z,5.20
2023-07-17T06:42:47.743Z,4.80
2023-07-17T06:43:47.741Z,5.50
2023-07-17T06:44:48.012Z,5.50
2023-07-17T06:45:47.749Z,5.20
2023-07-17T06:46:47.794Z,5.60
2023-07-17T06:47:47.761Z,5.30
2023-07-17T06:48:47.744Z,5.30
2023-07-17T06:49:47.750Z,5.00
2023-07-17T06:50:47.747Z,5.00
2023-07-17T06:51:47.756Z,5.10
2023-07-17T06:52:47.750Z,4.70
2023-07-17T06:53:47.748Z,5.10
2023-07-17T06:55:01.665Z,5.10
2023-07-17T06:55:47.749Z,5.20
2023-07-17T06:56:47.748Z,5.30
2023-07-17T06:57:47.757Z,5.20
2023-07-17T06:58:47.751Z,5.60
2023-07-17T06:59:47.770Z,5.20
2023-07-17T07:00:47.771Z,4.90
2023-07-17T07:01:47.782Z,5.20
2023-07-17T07:02:47.824Z,4.90
2023-07-17T07:03:47.779Z,5.00
2023-07-17T07:04:47.748Z,5.20
2023-07-17T07:05:47.754Z,5.00
2023-07-17T07:06:47.755Z,5.10
2023-07-17T07:07:47.754Z,5.10
2023-07-17T07:08:47.751Z,5.30
2023-07-17T07:09:47.759Z,5.00
2023-07-17T07:10:47.753Z,5.00
2023-07-17T07:11:47.754Z,5.10
2023-07-17T07:12:47.757Z,5.40
2023-07-17T07:13:47.757Z,4.90
2023-07-17T07:14:47.755Z,4.70
2023-07-17T07:15:47.752Z,5.20
2023-07-17T07:16:47.853Z,4.90
2023-07-17T07:17:47.804Z,5.20
2023-07-17T07:18:47.762Z,4.70
2023-07-17T07:19:47.761Z,5.30
2023-07-17T07:20:47.770Z,5.10
2023-07-17T07:21:47.758Z,5.40
2023-07-17T07:22:47.786Z,5.50
2023-07-17T07:23:47.759Z,5.30
2023-07-17T07:24:47.762Z,5.30
2023-07-17T07:25:47.760Z,5.50
2023-07-17T07:26:47.766Z,5.20
2023-07-17T07:27:47.767Z,5.50
2023-07-17T07:28:47.767Z,5.00
2023-07-17T07:29:47.764Z,5.80
2023-07-17T07:30:47.769Z,5.50
2023-07-17T07:31:47.821Z,5.80
2023-07-17T07:32:47.831Z,5.80
2023-07-17T07:33:47.772Z,6.30
2023-07-17T07:34:47.769Z,5.80
2023-07-17T07:35:47.765Z,5.10
2023-07-17T07:36:47.772Z,5.60
2023-07-17T07:37:47.768Z,5.70
2023-07-17T07:38:47.770Z,5.70
2023-07-17T07:39:47.778Z,5.50
2023-07-17T07:40:47.773Z,5.70
2023-07-17T07:41:47.780Z,5.90
2023-07-17T07:42:47.787Z,5.60
2023-07-17T07:43:47.778Z,5.50
2023-07-17T07:44:47.782Z,5.70
2023-07-17T07:45:47.792Z,5.90
2023-07-17T07:46:47.783Z,5.80
2023-07-17T07:47:47.802Z,5.70
2023-07-17T07:48:47.820Z,5.80
2023-07-17T07:49:48.791Z,5.80
2023-07-17T07:50:47.787Z,5.80
2023-07-17T07:51:50.749Z,5.20
2023-07-17T07:52:54.393Z,5.40
2023-07-17T07:53:47.783Z,5.80
2023-07-17T07:54:47.831Z,5.80
2023-07-17T07:55:47.789Z,5.50
2023-07-17T07:56:47.789Z,5.90
2023-07-17T07:57:47.790Z,5.50
2023-07-17T07:58:47.794Z,5.60
2023-07-17T07:59:47.792Z,5.30
2023-07-17T08:00:47.789Z,5.50
2023-07-17T08:01:47.813Z,5.40
2023-07-17T08:02:47.834Z,5.20
2023-07-17T08:03:47.810Z,5.70
2023-07-17T08:04:47.837Z,5.70
2023-07-17T08:05:47.792Z,5.10
2023-07-17T08:06:47.797Z,5.60
2023-07-17T08:07:47.804Z,5.20
2023-07-17T08:08:47.793Z,5.50
2023-07-17T08:09:47.799Z,5.50
2023-07-17T08:10:47.800Z,5.40
2023-07-17T08:11:47.814Z,5.20
2023-07-17T08:12:47.797Z,5.20
2023-07-17T08:13:47.807Z,5.20
2023-07-17T08:14:47.808Z,5.20
2023-07-17T08:15:47.857Z,5.40
2023-07-17T08:16:47.810Z,5.10
2023-07-17T08:17:47.835Z,5.30
2023-07-17T08:18:47.804Z,4.60
2023-07-17T08:19:47.806Z,5.30
2023-07-17T08:20:47.840Z,5.50
2023-07-17T08:21:47.839Z,5.60
2023-07-17T08:22:47.840Z,5.10
2023-07-17T08:23:47.811Z,5.20
2023-07-17T08:24:47.810Z,5.50
2023-07-17T08:25:47.865Z,5.50
2023-07-17T08:26:47.844Z,4.90
2023-07-17T08:27:47.813Z,5.30
2023-07-17T08:28:47.811Z,5.10
2023-07-17T08:29:47.814Z,5.50
2023-07-17T08:30:47.814Z,4.70
2023-07-17T08:31:47.829Z,5.00
2023-07-17T08:32:47.873Z,5.20
2023-07-17T08:33:47.816Z,4.90
2023-07-17T08:34:47.815Z,5.00
2023-07-17T08:35:47.820Z,5.10
2023-07-17T08:36:47.849Z,5.10
2023-07-17T08:37:47.815Z,5.20
2023-07-17T08:38:47.815Z,5.50
2023-07-17T08:39:47.857Z,5.40
2023-07-17T08:40:47.829Z,5.00
2023-07-17T08:41:47.849Z,5.40
2023-07-17T08:42:47.837Z,5.00
2023-07-17T08:43:47.830Z,5.20
2023-07-17T08:44:47.825Z,5.00
2023-07-17T08:45:47.845Z,5.00
2023-07-17T08:46:47.844Z,5.10
2023-07-17T08:47:47.870Z,5.40
2023-07-17T08:48:47.831Z,4.80
2023-07-17T08:49:47.849Z,5.00
2023-07-17T08:50:47.832Z,4.80
2023-07-17T08:51:47.834Z,4.90
2023-07-17T08:52:47.958Z,4.90
2023-07-17T08:53:47.840Z,5.00
2023-07-17T08:54:47.841Z,4.90
2023-07-17T08:55:47.841Z,4.90
2023-07-17T08:56:47.846Z,5.10
2023-07-17T08:57:47.843Z,4.80
2023-07-17T08:58:47.841Z,4.70
2023-07-17T08:59:47.847Z,5.00
2023-07-17T09:00:47.842Z,4.90
2023-07-17T09:01:47.885Z,5.00
2023-07-17T09:02:47.881Z,4.90
2023-07-17T09:03:47.878Z,4.90
2023-07-17T09:04:47.846Z,5.10
2023-07-17T09:05:47.847Z,5.10
2023-07-17T09:06:47.845Z,5.10
2023-07-17T09:07:47.850Z,5.00
2023-07-17T09:08:47.876Z,5.40
2023-07-17T09:09:47.858Z,4.80
2023-07-17T09:10:47.860Z,5.00
2023-07-17T09:11:47.862Z,5.30
2023-07-17T09:12:47.864Z,5.10
2023-07-17T09:13:47.855Z,5.20
2023-07-17T09:14:47.861Z,5.20
2023-07-17T09:15:47.862Z,4.90
2023-07-17T09:16:47.874Z,5.00
2023-07-17T09:17:47.877Z,5.10
2023-07-17T09:18:47.859Z,5.40
2023-07-17T09:19:47.883Z,5.50
2023-07-17T09:20:47.866Z,5.40
2023-07-17T09:21:47.870Z,5.10
2023-07-17T09:22:47.891Z,5.10
2023-07-17T09:23:47.912Z,5.60
2023-07-17T09:24:47.894Z,5.20
2023-07-17T09:25:47.869Z,5.30
2023-07-17T09:26:47.873Z,5.10
2023-07-17T09:27:47.931Z,5.10
2023-07-17T09:28:47.876Z,5.40
2023-07-17T09:29:47.874Z,4.60
2023-07-17T09:30:47.922Z,5.00
2023-07-17T09:31:49.322Z,5.20
2023-07-17T09:32:47.931Z,4.90
2023-07-17T09:33:47.879Z,5.20
2023-07-17T09:34:47.884Z,4.80
2023-07-17T09:35:47.887Z,5.30
2023-07-17T09:36:47.892Z,5.00
2023-07-17T09:37:47.892Z,5.20
2023-07-17T09:38:47.886Z,5.10
2023-07-17T09:39:47.889Z,5.10
2023-07-17T09:40:47.969Z,5.10
2023-07-17T09:41:47.895Z,5.10
2023-07-17T09:42:47.892Z,5.30
2023-07-17T09:43:47.894Z,5.10
2023-07-17T09:44:47.895Z,5.30
2023-07-17T09:45:47.896Z,5.20
2023-07-17T09:46:47.953Z,5.10
2023-07-17T09:47:47.964Z,5.00
2023-07-17T09:48:47.904Z,4.80
2023-07-17T09:49:47.906Z,4.90
2023-07-17T09:50:47.930Z,4.70
2023-07-17T09:51:47.908Z,4.60
2023-07-17T09:52:47.906Z,4.80
2023-07-17T09:53:47.906Z,4.50
2023-07-17T09:54:47.913Z,4.70
2023-07-17T09:55:47.908Z,4.50
2023-07-17T09:56:48.784Z,5.00
2023-07-17T09:57:47.912Z,4.40
2023-07-17T09:58:47.917Z,4.90
2023-07-17T09:59:47.912Z,4.70
2023-07-17T10:00:47.954Z,4.80
2023-07-17T10:01:47.926Z,4.60
2023-07-17T10:02:47.980Z,4.80
2023-07-17T10:03:47.950Z,4.80
2023-07-17T10:04:47.921Z,4.70
2023-07-17T10:05:47.925Z,4.50
2023-07-17T10:06:47.936Z,4.90
2023-07-17T10:07:47.974Z,4.90
2023-07-17T10:08:47.965Z,4.60
2023-07-17T10:09:47.930Z,5.00
2023-07-17T10:10:47.956Z,5.00
2023-07-17T10:11:47.931Z,5.40
2023-07-17T10:12:47.978Z,5.00
2023-07-17T10:13:47.934Z,4.80
2023-07-17T10:14:47.956Z,4.90
2023-07-17T10:15:47.940Z,5.20
2023-07-17T10:16:47.993Z,5.00
2023-07-17T10:17:47.961Z,4.80
2023-07-17T10:18:47.945Z,5.10
2023-07-17T10:19:47.947Z,4.60
2023-07-17T10:20:47.940Z,5.30
2023-07-17T10:21:50.569Z,5.20
2023-07-17T10:22:48.053Z,5.50
2023-07-17T10:23:47.942Z,5.50
2023-07-17T10:24:47.944Z,5.30
2023-07-17T10:25:47.945Z,5.20
2023-07-17T10:26:47.948Z,5.30
2023-07-17T10:27:47.954Z,5.20
2023-07-17T10:28:47.972Z,5.20
2023-07-17T10:29:47.951Z,5.00
2023-07-17T10:30:47.968Z,5.30
2023-07-17T10:31:47.952Z,5.70
2023-07-17T10:32:47.986Z,5.40
2023-07-17T10:33:47.955Z,5.20
2023-07-17T10:34:47.979Z,5.30
2023-07-17T10:35:47.973Z,5.20
2023-07-17T10:36:47.982Z,5.50
2023-07-17T10:37:47.972Z,5.30
2023-07-17T10:38:47.965Z,5.20
2023-07-17T10:39:47.989Z,5.30
2023-07-17T10:40:47.990Z,5.40
2023-07-17T10:41:47.970Z,5.40
2023-07-17T10:42:47.970Z,5.30
2023-07-17T10:43:48.461Z,5.40
2023-07-17T10:44:48.000Z,5.20
2023-07-17T10:45:47.987Z,5.40
2023-07-17T10:46:48.327Z,5.30
2023-07-17T10:47:48.025Z,5.30
2023-07-17T10:48:47.979Z,5.50
2023-07-17T10:49:47.978Z,5.40
2023-07-17T10:50:47.982Z,5.30
2023-07-17T10:51:48.002Z,5.40
2023-07-17T10:52:47.984Z,5.30
2023-07-17T10:53:47.980Z,5.10
2023-07-17T10:54:47.985Z,5.30
2023-07-17T10:55:47.998Z,5.70
2023-07-17T10:56:48.093Z,5.60
2023-07-17T10:57:47.998Z,5.10
2023-07-17T10:58:47.990Z,5.10
2023-07-17T10:59:47.992Z,5.10
2023-07-17T11:00:48.015Z,5.30
2023-07-17T11:01:48.025Z,5.20
2023-07-17T11:02:48.019Z,5.10
2023-07-17T11:03:48.081Z,5.30
2023-07-17T11:04:48.000Z,5.70
2023-07-17T11:05:48.015Z,5.00
2023-07-17T11:06:48.010Z,5.20
2023-07-17T11:07:47.999Z,5.10
2023-07-17T11:08:48.003Z,5.10
2023-07-17T11:09:48.001Z,5.10
2023-07-17T11:10:48.013Z,5.30
2023-07-17T11:11:48.008Z,4.90
2023-07-17T11:12:48.010Z,5.60
2023-07-17T11:13:48.007Z,5.50
2023-07-17T11:14:48.011Z,5.50
2023-07-17T11:15:48.022Z,5.40
2023-07-17T11:16:49.127Z,5.20
2023-07-17T11:17:48.156Z,5.60
2023-07-17T11:18:48.016Z,5.00
2023-07-17T11:19:48.028Z,5.70
2023-07-17T11:20:48.034Z,5.10
2023-07-17T11:21:48.032Z,5.10
2023-07-17T11:22:48.098Z,5.10
2023-07-17T11:23:48.023Z,5.10
2023-07-17T11:24:48.028Z,5.40
2023-07-17T11:25:48.028Z,4.80
2023-07-17T11:26:48.045Z,5.50
2023-07-17T11:27:48.049Z,5.40
2023-07-17T11:28:48.044Z,5.30
2023-07-17T11:29:48.042Z,5.30
2023-07-17T11:30:48.052Z,5.40
2023-07-17T11:31:48.150Z,5.40
2023-07-17T11:32:48.075Z,5.60
2023-07-17T11:33:48.044Z,5.60
2023-07-17T11:34:48.041Z,5.70
2023-07-17T11:35:48.053Z,5.50
2023-07-17T11:36:48.046Z,5.30
2023-07-17T11:37:48.047Z,5.50
2023-07-17T11:38:48.055Z,5.40
2023-07-17T11:39:48.047Z,5.40
2023-07-17T11:40:48.055Z,5.40
2023-07-17T11:41:48.091Z,5.50
2023-07-17T11:42:48.055Z,5.70
2023-07-17T11:43:48.055Z,5.60
2023-07-17T11:44:48.057Z,5.40
2023-07-17T11:45:48.089Z,5.30
2023-07-17T11:46:48.143Z,4.80
2023-07-17T11:47:48.096Z,5.20
2023-07-17T11:48:48.124Z,5.30
2023-07-17T11:49:48.068Z,5.20
2023-07-17T11:50:48.070Z,5.20
2023-07-17T11:51:48.072Z,5.20
2023-07-17T11:52:48.070Z,5.50
2023-07-17T11:53:48.079Z,5.20
2023-07-17T11:54:48.080Z,5.00
2023-07-17T11:55:48.071Z,5.20
2023-07-17T11:56:48.085Z,5.10
2023-07-17T11:57:55.608Z,5.10
2023-07-17T11:58:48.077Z,5.20
2023-07-17T11:59:48.077Z,5.40
2023-07-17T12:00:48.088Z,4.90
2023-07-17T12:01:48.155Z,5.10
2023-07-17T12:02:48.107Z,5.50
2023-07-17T12:03:48.162Z,5.40
2023-07-17T12:04:48.125Z,5.00
2023-07-17T12:05:48.113Z,5.00
2023-07-17T12:06:48.117Z,5.60
2023-07-17T12:07:48.094Z,5.00
2023-07-17T12:08:48.114Z,5.30
2023-07-17T12:09:48.119Z,5.30
2023-07-17T12:10:48.097Z,5.50
2023-07-17T12:11:48.100Z,4.90
2023-07-17T12:12:48.097Z,5.10
2023-07-17T12:13:48.126Z,5.30
2023-07-17T12:14:48.102Z,5.00
2023-07-17T12:15:48.104Z,4.80
2023-07-17T12:16:48.248Z,5.30
2023-07-17T12:17:48.176Z,4.80
2023-07-17T12:18:48.115Z,5.10
2023-07-17T12:19:48.108Z,5.20
2023-07-17T12:20:48.131Z,5.10
2023-07-17T12:21:48.117Z,4.90
2023-07-17T12:22:48.197Z,5.30
2023-07-17T12:23:48.128Z,5.40
2023-07-17T12:24:48.122Z,5.20
2023-07-17T12:25:48.216Z,5.10
2023-07-17T12:26:48.120Z,5.50
2023-07-17T12:27:48.122Z,5.40
2023-07-17T12:28:48.126Z,4.90
2023-07-17T12:29:48.141Z,4.90
2023-07-17T12:30:48.139Z,5.00
2023-07-17T12:31:48.152Z,5.00
2023-07-17T12:32:48.833Z,5.00
2023-07-17T12:33:48.309Z,5.00
2023-07-17T12:34:48.137Z,5.00
2023-07-17T12:35:48.140Z,5.20
2023-07-17T12:36:48.165Z,4.70
2023-07-17T12:37:48.141Z,4.80
2023-07-17T12:38:48.145Z,5.00
2023-07-17T12:39:48.152Z,4.60
2023-07-17T12:40:48.144Z,4.90
2023-07-17T12:41:48.154Z,5.40
2023-07-17T12:42:48.150Z,4.80
2023-07-17T12:43:48.155Z,4.70
2023-07-17T12:44:48.150Z,4.80
2023-07-17T12:45:48.162Z,5.00
2023-07-17T12:46:48.185Z,4.90
2023-07-17T12:47:48.268Z,4.80
2023-07-17T12:48:48.834Z,5.10
2023-07-17T12:49:48.160Z,5.00
2023-07-17T12:50:49.689Z,5.20
2023-07-17T12:51:48.180Z,4.70
2023-07-17T12:52:48.219Z,4.70
2023-07-17T12:53:48.183Z,4.80
2023-07-17T12:54:48.170Z,5.30
2023-07-17T12:55:51.746Z,4.90
2023-07-17T12:56:48.172Z,4.80
2023-07-17T12:57:48.174Z,4.90
2023-07-17T12:58:48.182Z,4.90
2023-07-17T12:59:48.178Z,4.60
2023-07-17T13:00:48.176Z,4.80
2023-07-17T13:01:48.254Z,4.90
2023-07-17T13:02:48.250Z,4.90
2023-07-17T13:03:48.331Z,4.40
2023-07-17T13:04:48.750Z,4.60
2023-07-17T13:05:48.189Z,5.00
2023-07-17T13:06:48.186Z,4.90
2023-07-17T13:07:51.195Z,4.70
2023-07-17T13:08:48.208Z,5.00
2023-07-17T13:09:48.190Z,5.00
2023-07-17T13:10:48.197Z,4.90
2023-07-17T13:11:48.193Z,4.90
2023-07-17T13:12:49.538Z,4.80
2023-07-17T13:13:48.200Z,4.90
2023-07-17T13:14:48.205Z,4.60
2023-07-17T13:15:48.210Z,4.50
2023-07-17T13:16:48.209Z,4.80
2023-07-17T13:17:48.238Z,4.50
2023-07-17T13:18:48.212Z,4.70